Flying Cat 3 — SX6671 — position and weather

sailwx.info

Track history (hours):
 
Tides and Currents Weather Stations Pressure Air Temp Water Temp Dewpoint Dewpoint Depression Visibility Wind Speed Wind Dir Waves Ship Positions

Flying Cat 3

Last reported at 2018-Jun-24 22:00 UTC. Time now 2018-Jun-24 21:59 UTC.
Position N 37°57' E 023°39'.

Length 48 m; draft 1.5 m.

Type: High speed craft. MMSI: 239552000.

Date/timePositionNaut miles runAvg speedWind from/ knotsBaromVisibWave heightAir tempDewpointWater temp
2018-Jun-24 22:00N 37°57' E 023°39'0 0.0
2018-Jun-24 21:30N 37°57' E 023°39'0 0.0
2018-Jun-24 21:00N 37°57' E 023°39'0 0.0
2018-Jun-24 20:30N 37°57' E 023°39'0 0.0
2018-Jun-24 20:00N 37°57' E 023°39'0 0.0
2018-Jun-24 19:30N 37°57' E 023°39'0 0.0
2018-Jun-24 19:00N 37°57' E 023°39'917.3
2018-Jun-24 18:31N 37°48' E 023°35'4 1.1
2018-Jun-24 14:57N 37°45' E 023°34'1328.3
2018-Jun-24 14:30N 37°57' E 023°39'0 0.0
2018-Jun-24 14:00N 37°57' E 023°39'918.1
2018-Jun-24 13:31N 37°48' E 023°35'5 1.1
2018-Jun-24 09:29N 37°44' E 023°33'1428.7
2018-Jun-24 09:00N 37°57' E 023°39'0 0.0
2018-Jun-24 08:30N 37°57' E 023°39'0 0.0
2018-Jun-24 08:00N 37°57' E 023°39'0 0.0
2018-Jun-24 07:30N 37°57' E 023°39'0 0.0
2018-Jun-24 07:00N 37°57' E 023°39'0 0.0
2018-Jun-24 06:30N 37°57' E 023°39'0 0.0
2018-Jun-24 06:00N 37°57' E 023°39'0 0.0
2018-Jun-24 05:30N 37°57' E 023°39'0 0.0
2018-Jun-24 05:00N 37°57' E 023°39'0 0.0
2018-Jun-24 04:30N 37°57' E 023°39'0 0.0
2018-Jun-24 04:00N 37°57' E 023°39'0 0.0
2018-Jun-24 03:30N 37°57' E 023°39'0 0.0
2018-Jun-24 03:00N 37°57' E 023°39'0 0.0
2018-Jun-24 02:30N 37°57' E 023°39'0 0.0
2018-Jun-24 02:00N 37°57' E 023°39'0 0.0
2018-Jun-24 01:30N 37°57' E 023°39'0 0.0
2018-Jun-24 01:00N 37°57' E 023°39'0 0.0
2018-Jun-24 00:30N 37°57' E 023°39'0 0.0
2018-Jun-24 00:00N 37°57' E 023°39'0 0.0
2018-Jun-23 23:30N 37°57' E 023°39'0 0.0
2018-Jun-23 23:00N 37°57' E 023°39'0 0.0
2018-Jun-23 22:30N 37°57' E 023°39'0 0.0
2018-Jun-23 22:00N 37°57' E 023°39'0 0.0
2018-Jun-23 21:30N 37°57' E 023°39'0 0.0
2018-Jun-23 21:00N 37°57' E 023°39'0 0.0
2018-Jun-23 20:30N 37°57' E 023°39'0 0.0
2018-Jun-23 20:00N 37°57' E 023°39'0 0.0
2018-Jun-23 19:30N 37°57' E 023°39'0 0.0
2018-Jun-23 19:00N 37°57' E 023°39'0 0.0
2018-Jun-23 18:30N 37°57' E 023°39'0 0.0
2018-Jun-23 18:00N 37°57' E 023°39'0 0.0
2018-Jun-23 17:30N 37°57' E 023°39'0 0.0
2018-Jun-23 17:00N 37°57' E 023°39'0 0.0
2018-Jun-23 16:30N 37°57' E 023°39'0 0.0
2018-Jun-23 16:00N 37°57' E 023°39'0 0.0
2018-Jun-23 15:30N 37°57' E 023°39'0 0.0
2018-Jun-23 15:00N 37°57' E 023°39'1 2.2
2018-Jun-23 14:31N 37°56' E 023°37'14 3.9
2018-Jun-23 10:47N 37°42' E 023°35'1037.0
2018-Jun-23 10:31N 37°52' E 023°36'5 9.1
2018-Jun-23 10:00N 37°57' E 023°39'0 0.0
2018-Jun-23 09:30N 37°57' E 023°39'817.0
2018-Jun-23 09:01N 37°48' E 023°36'5 1.8
2018-Jun-23 05:59N 37°43' E 023°35'1428.5
2018-Jun-23 05:30N 37°57' E 023°39'0 0.0
2018-Jun-23 05:00N 37°57' E 023°39'0 0.0
2018-Jun-23 04:30N 37°57' E 023°39'0 0.0
2018-Jun-23 04:00N 37°57' E 023°39'0 0.0
2018-Jun-23 03:30N 37°57' E 023°39'0 0.0
2018-Jun-23 03:00N 37°57' E 023°39'0 0.0
2018-Jun-23 02:30N 37°57' E 023°39'0 0.0
2018-Jun-23 02:00N 37°57' E 023°39'0 0.0
2018-Jun-23 01:30N 37°57' E 023°39'0 0.0
2018-Jun-23 01:00N 37°57' E 023°39'0 0.0
2018-Jun-23 00:30N 37°57' E 023°39'0 0.0
2018-Jun-23 00:00N 37°57' E 023°39'0 0.0
2018-Jun-22 23:30N 37°57' E 023°39'0 0.0
2018-Jun-22 23:00N 37°57' E 023°39'0 0.0
2018-Jun-22 22:30N 37°57' E 023°39'0 0.0
2018-Jun-22 22:00N 37°57' E 023°39'0 0.0
2018-Jun-22 21:30N 37°57' E 023°39'0 0.0
2018-Jun-22 21:00N 37°57' E 023°39'0 0.0
2018-Jun-22 20:30N 37°57' E 023°39'0 0.0
2018-Jun-22 20:00N 37°57' E 023°39'0 0.0
2018-Jun-22 19:30N 37°57' E 023°39'0 0.0
2018-Jun-22 19:00N 37°57' E 023°39'918.6
2018-Jun-22 18:31N 37°48' E 023°35'16 5.0
2018-Jun-22 15:20N 37°32' E 023°33'1236.4
2018-Jun-22 15:00N 37°44' E 023°35'1326.2
2018-Jun-22 14:30N 37°57' E 023°39'0 0.0
2018-Jun-22 14:00N 37°57' E 023°39'0 0.0
2018-Jun-22 13:30N 37°57' E 023°39'1428.5
2018-Jun-22 13:01N 37°43' E 023°33'1519.3
2018-Jun-22 12:15N 37°29' E 023°31'3 4.1
2018-Jun-22 11:28N 37°26' E 023°33'1718.3
2018-Jun-22 10:34N 37°42' E 023°32'236.3
2018-Jun-22 10:30N 37°44' E 023°34'1325.6
2018-Jun-22 10:00N 37°57' E 023°39'0 0.0
2018-Jun-22 09:30N 37°57' E 023°39'0 0.0
2018-Jun-22 09:00N 37°57' E 023°39'0 0.0
2018-Jun-22 08:30N 37°57' E 023°39'0 0.0
2018-Jun-22 08:00N 37°57' E 023°39'0 0.0
2018-Jun-22 07:30N 37°57' E 023°39'0 0.0
2018-Jun-22 07:00N 37°57' E 023°39'0 0.0
2018-Jun-22 06:30N 37°57' E 023°39'0 0.0
2018-Jun-22 06:00N 37°57' E 023°39'0 0.0
2018-Jun-22 05:30N 37°57' E 023°39'0 0.0
2018-Jun-22 05:00N 37°57' E 023°39'0 0.0
2018-Jun-22 04:30N 37°57' E 023°39'0 0.0
2018-Jun-22 04:00N 37°57' E 023°39'0 0.0
2018-Jun-22 03:30N 37°57' E 023°39'0 0.0
2018-Jun-22 03:00N 37°57' E 023°39'0 0.0
2018-Jun-22 02:30N 37°57' E 023°39'0 0.0
2018-Jun-22 02:00N 37°57' E 023°39'0 0.0
2018-Jun-22 01:30N 37°57' E 023°39'0 0.0
2018-Jun-22 01:00N 37°57' E 023°39'0 0.0
2018-Jun-22 00:30N 37°57' E 023°39'0 0.0
2018-Jun-22 00:00N 37°57' E 023°39'0 0.0
2018-Jun-21 23:30N 37°57' E 023°39'0 0.0
2018-Jun-21 23:00N 37°57' E 023°39'0 0.0
2018-Jun-21 22:30N 37°57' E 023°39'0 0.0
2018-Jun-21 22:00N 37°57' E 023°39'0 0.0
2018-Jun-21 21:30N 37°57' E 023°39'0 0.0
2018-Jun-21 21:00N 37°57' E 023°39'0 0.0
2018-Jun-21 20:29N 37°57' E 023°39'0 0.0
2018-Jun-21 20:00N 37°57' E 023°39'0 0.0
2018-Jun-21 19:30N 37°57' E 023°39'0 0.0
2018-Jun-21 19:00N 37°57' E 023°39'3 5.8
2018-Jun-21 18:30N 37°54' E 023°36'3010.0
2018-Jun-21 15:28N 37°24' E 023°31'1718.5
2018-Jun-21 14:33N 37°41' E 023°32'237.3
2018-Jun-21 14:30N 37°43' E 023°33'1529.4
2018-Jun-21 14:01N 37°57' E 023°39'0 0.1
2018-Jun-21 13:30N 37°57' E 023°39'0 0.0
2018-Jun-21 13:00N 37°57' E 023°39'0 0.0
2018-Jun-21 12:30N 37°57' E 023°39'0 0.0
2018-Jun-21 12:00N 37°57' E 023°39'0 0.0
2018-Jun-21 11:30N 37°57' E 023°39'0 0.0
2018-Jun-21 11:00N 37°57' E 023°39'0 0.0
2018-Jun-21 10:30N 37°57' E 023°39'0 0.0
2018-Jun-21 10:00N 37°57' E 023°39'0 0.0
2018-Jun-21 09:30N 37°57' E 023°39'714.8
2018-Jun-21 09:00N 37°50' E 023°35'8 2.7
2018-Jun-21 06:03N 37°42' E 023°35'238.3
2018-Jun-21 06:00N 37°43' E 023°36'1326.8
2018-Jun-21 05:30N 37°57' E 023°39'0 0.0
2018-Jun-21 05:01N 37°57' E 023°39'0 0.0
2018-Jun-21 04:31N 37°57' E 023°39'0 0.0
2018-Jun-21 04:01N 37°57' E 023°39'0 0.0
2018-Jun-21 03:31N 37°57' E 023°39'0 0.0
2018-Jun-21 03:01N 37°57' E 023°39'0 0.0
2018-Jun-21 02:31N 37°57' E 023°39'0 0.0
2018-Jun-21 02:01N 37°57' E 023°39'0 0.0
2018-Jun-21 01:31N 37°57' E 023°39'0 0.0
2018-Jun-21 01:01N 37°57' E 023°39'0 0.0
2018-Jun-21 00:31N 37°57' E 023°39'0 0.0
2018-Jun-21 00:01N 37°57' E 023°39'0 0.0
2018-Jun-20 23:31N 37°57' E 023°39'0 0.0
2018-Jun-20 23:01N 37°57' E 023°39'0 0.0
2018-Jun-20 22:31N 37°57' E 023°39'0 0.0
2018-Jun-20 22:01N 37°57' E 023°39'0 0.0
2018-Jun-20 21:31N 37°57' E 023°39'0 0.0
2018-Jun-20 21:01N 37°57' E 023°39'0 0.0
2018-Jun-20 20:31N 37°57' E 023°39'0 0.0
2018-Jun-20 20:00N 37°57' E 023°39'0 0.0
2018-Jun-20 19:31N 37°57' E 023°39'0 0.0
2018-Jun-20 19:01N 37°57' E 023°39'3 5.2
2018-Jun-20 18:31N 37°55' E 023°36'12 3.0
2018-Jun-20 14:30N 37°43' E 023°33'1428.8
2018-Jun-20 14:01N 37°57' E 023°39'0 0.0
2018-Jun-20 13:31N 37°57' E 023°39'0 0.0
2018-Jun-20 13:00N 37°57' E 023°39'0 0.0
2018-Jun-20 12:31N 37°57' E 023°39'0 0.0
2018-Jun-20 12:01N 37°57' E 023°39'0 0.0
2018-Jun-20 11:31N 37°57' E 023°39'0 0.0
2018-Jun-20 11:01N 37°57' E 023°39'0 0.0
2018-Jun-20 10:31N 37°57' E 023°39'0 0.0
2018-Jun-20 10:01N 37°57' E 023°39'0 0.0
2018-Jun-20 09:31N 37°57' E 023°39'1020.1
2018-Jun-20 09:01N 37°47' E 023°35'4 1.2
2018-Jun-20 05:59N 37°43' E 023°35'1429.0
2018-Jun-20 05:31N 37°57' E 023°39'0 0.0
2018-Jun-20 05:00N 37°57' E 023°39'0 0.0
2018-Jun-20 04:30N 37°57' E 023°39'0 0.0
2018-Jun-20 04:00N 37°57' E 023°39'0 0.0
2018-Jun-20 03:30N 37°57' E 023°39'0 0.0
2018-Jun-20 03:00N 37°57' E 023°39'0 0.0
2018-Jun-20 02:30N 37°57' E 023°39'0 0.0
2018-Jun-20 02:00N 37°57' E 023°39'0 0.0
2018-Jun-20 01:30N 37°57' E 023°39'0 0.0
2018-Jun-20 01:00N 37°57' E 023°39'0 0.0
2018-Jun-20 00:30N 37°57' E 023°39'0 0.0
2018-Jun-20 00:00N 37°57' E 023°39'0 0.0
2018-Jun-19 23:30N 37°57' E 023°39'0 0.0
2018-Jun-19 23:00N 37°57' E 023°39'0 0.0
2018-Jun-19 22:30N 37°57' E 023°39'0 0.0
2018-Jun-19 22:00N 37°57' E 023°39'0 0.0
2018-Jun-19 21:30N 37°57' E 023°39'0 0.0
2018-Jun-19 21:00N 37°57' E 023°39'0 0.0
2018-Jun-19 20:30N 37°57' E 023°39'0 0.0
2018-Jun-19 20:00N 37°57' E 023°39'0 0.0
2018-Jun-19 19:30N 37°57' E 023°39'0 0.0
2018-Jun-19 19:00N 37°57' E 023°39'3 7.0
2018-Jun-19 18:30N 37°54' E 023°36'10 2.5
2018-Jun-19 14:28N 37°44' E 023°34'1328.6
2018-Jun-19 14:01N 37°57' E 023°39'0 0.0
2018-Jun-19 13:30N 37°57' E 023°39'0 0.0
2018-Jun-19 13:00N 37°57' E 023°39'0 0.0
2018-Jun-19 12:30N 37°57' E 023°39'0 0.0
2018-Jun-19 12:00N 37°57' E 023°39'0 0.0
2018-Jun-19 11:30N 37°57' E 023°39'0 0.0
2018-Jun-19 11:00N 37°57' E 023°39'0 0.0
2018-Jun-19 10:30N 37°57' E 023°39'0 0.0
2018-Jun-19 10:00N 37°57' E 023°39'0 0.0
2018-Jun-19 09:30N 37°57' E 023°39'918.2
2018-Jun-19 09:00N 37°48' E 023°36'4 1.3
2018-Jun-19 05:59N 37°44' E 023°35'1328.0
2018-Jun-19 05:31N 37°57' E 023°39'0 0.0
2018-Jun-19 05:01N 37°57' E 023°39'0 0.0
2018-Jun-19 04:31N 37°57' E 023°39'0 0.0
2018-Jun-19 04:01N 37°57' E 023°39'0 0.0
2018-Jun-19 03:31N 37°57' E 023°39'0 0.0
2018-Jun-19 03:01N 37°57' E 023°39'0 0.0
2018-Jun-19 02:31N 37°57' E 023°39'0 0.0
2018-Jun-19 02:01N 37°57' E 023°39'0 0.0
2018-Jun-19 01:31N 37°57' E 023°39'0 0.0
2018-Jun-19 01:01N 37°57' E 023°39'0 0.0
2018-Jun-19 00:31N 37°57' E 023°39'0 0.0
2018-Jun-19 00:01N 37°57' E 023°39'0 0.0
2018-Jun-18 23:31N 37°57' E 023°39'0 0.0
2018-Jun-18 23:01N 37°57' E 023°39'0 0.0
2018-Jun-18 22:30N 37°57' E 023°39'0 0.0
2018-Jun-18 22:00N 37°57' E 023°39'0 0.0
2018-Jun-18 21:31N 37°57' E 023°39'0 0.0
2018-Jun-18 21:01N 37°57' E 023°39'0 0.0
2018-Jun-18 20:30N 37°57' E 023°39'0 0.0
2018-Jun-18 20:00N 37°57' E 023°39'0 0.0
2018-Jun-18 19:31N 37°57' E 023°39'0 0.0
2018-Jun-18 19:01N 37°57' E 023°39'3 6.7
2018-Jun-18 18:30N 37°54' E 023°36'10 2.4
2018-Jun-18 14:27N 37°44' E 023°34'1328.5
2018-Jun-18 14:00N 37°57' E 023°39'0 0.1
2018-Jun-18 13:30N 37°57' E 023°39'0 0.0
2018-Jun-18 13:00N 37°57' E 023°39'0 0.0
2018-Jun-18 12:30N 37°57' E 023°39'0 0.0
2018-Jun-18 12:00N 37°57' E 023°39'0 0.0
2018-Jun-18 11:30N 37°57' E 023°39'0 0.0
2018-Jun-18 11:00N 37°57' E 023°39'0 0.0
2018-Jun-18 10:30N 37°57' E 023°39'0 0.0
2018-Jun-18 10:00N 37°57' E 023°39'0 0.0
2018-Jun-18 09:30N 37°57' E 023°39'1121.4
2018-Jun-18 09:00N 37°46' E 023°35'4 1.2
2018-Jun-18 06:00N 37°43' E 023°35'1429.0
2018-Jun-18 05:30N 37°57' E 023°39'0 0.0
2018-Jun-18 05:00N 37°57' E 023°39'0 0.0
2018-Jun-18 04:30N 37°57' E 023°39'0 0.0
2018-Jun-18 04:01N 37°57' E 023°39'0 0.0
2018-Jun-18 03:30N 37°57' E 023°39'0 0.0
2018-Jun-18 03:00N 37°57' E 023°39'0 0.0
2018-Jun-18 02:31N 37°57' E 023°39'0 0.0
2018-Jun-18 02:00N 37°57' E 023°39'0 0.0
2018-Jun-18 01:30N 37°57' E 023°39'0 0.0
2018-Jun-18 01:01N 37°57' E 023°39'0 0.0
2018-Jun-18 00:30N 37°57' E 023°39'0 0.0
2018-Jun-18 00:00N 37°57' E 023°39'0 0.0
2018-Jun-17 23:30N 37°57' E 023°39'0 0.0
2018-Jun-17 23:00N 37°57' E 023°39'0 0.0
2018-Jun-17 22:31N 37°57' E 023°39'0 0.0
2018-Jun-17 22:00N 37°57' E 023°39'0 0.0
2018-Jun-17 21:30N 37°57' E 023°39'0 0.0
2018-Jun-17 21:00N 37°57' E 023°39'0 0.0
2018-Jun-17 20:30N 37°57' E 023°39'0 0.0
2018-Jun-17 20:00N 37°57' E 023°39'0 0.0
2018-Jun-17 19:31N 37°57' E 023°39'0 0.0
2018-Jun-17 19:01N 37°57' E 023°39'0 0.0
2018-Jun-17 18:31N 37°57' E 023°39'1122.4
2018-Jun-17 18:01N 37°46' E 023°35'1 0.2
2018-Jun-17 14:55N 37°46' E 023°36'1127.2
2018-Jun-17 14:30N 37°57' E 023°39'0 0.0
2018-Jun-17 14:01N 37°57' E 023°39'1018.9
2018-Jun-17 13:30N 37°47' E 023°35'4 1.0
2018-Jun-17 09:31N 37°44' E 023°33'036.6
2018-Jun-17 09:30N 37°44' E 023°33'1427.0
2018-Jun-17 09:01N 37°57' E 023°39'0 0.0
2018-Jun-17 08:30N 37°57' E 023°39'0 0.0
2018-Jun-17 08:00N 37°57' E 023°39'0 0.0
2018-Jun-17 07:30N 37°57' E 023°39'0 0.0
2018-Jun-17 07:00N 37°57' E 023°39'0 0.0
2018-Jun-17 06:30N 37°57' E 023°39'0 0.0
2018-Jun-17 06:00N 37°57' E 023°39'0 0.0
2018-Jun-17 05:30N 37°57' E 023°39'0 0.0
2018-Jun-17 05:00N 37°57' E 023°39'0 0.0
2018-Jun-17 04:30N 37°57' E 023°39'0 0.0
2018-Jun-17 04:00N 37°57' E 023°39'0 0.0
2018-Jun-17 03:30N 37°57' E 023°39'0 0.0
2018-Jun-17 03:00N 37°57' E 023°39'0 0.0
2018-Jun-17 02:30N 37°57' E 023°39'0 0.0
2018-Jun-17 02:00N 37°57' E 023°39'0 0.0
2018-Jun-17 01:30N 37°57' E 023°39'0 0.0
2018-Jun-17 01:00N 37°57' E 023°39'0 0.0
2018-Jun-17 00:30N 37°57' E 023°39'0 0.0
2018-Jun-17 00:00N 37°57' E 023°39'0 0.0
2018-Jun-16 23:30N 37°57' E 023°39'0 0.0
2018-Jun-16 23:00N 37°57' E 023°39'0 0.0
2018-Jun-16 22:30N 37°57' E 023°39'0 0.0
2018-Jun-16 22:00N 37°57' E 023°39'0 0.0
2018-Jun-16 21:30N 37°57' E 023°39'0 0.0
2018-Jun-16 21:00N 37°57' E 023°39'0 0.0
2018-Jun-16 20:30N 37°57' E 023°39'0 0.0
2018-Jun-16 20:00N 37°57' E 023°39'0 0.0
2018-Jun-16 19:30N 37°57' E 023°39'0 0.0
2018-Jun-16 19:00N 37°57' E 023°39'0 0.0
2018-Jun-16 18:30N 37°57' E 023°39'0 0.0
2018-Jun-16 18:00N 37°57' E 023°39'0 0.0
2018-Jun-16 17:30N 37°57' E 023°39'0 0.0
2018-Jun-16 17:00N 37°57' E 023°39'0 0.0
2018-Jun-16 16:30N 37°57' E 023°39'0 0.0
2018-Jun-16 16:00N 37°57' E 023°39'0 0.0
2018-Jun-16 15:30N 37°57' E 023°39'0 0.0
2018-Jun-16 15:00N 37°57' E 023°39'1 1.8
2018-Jun-16 14:31N 37°56' E 023°37'2035.1
2018-Jun-16 13:57N 37°38' E 023°30'7 2.2
2018-Jun-16 10:45N 37°43' E 023°35'936.5
2018-Jun-16 10:31N 37°52' E 023°36'5 9.9
2018-Jun-16 10:00N 37°57' E 023°39'0 0.0
2018-Jun-16 09:30N 37°57' E 023°39'1122.7
2018-Jun-16 09:01N 37°46' E 023°35'2 0.6
2018-Jun-16 05:59N 37°44' E 023°35'1328.1
2018-Jun-16 05:30N 37°57' E 023°39'0 0.0
2018-Jun-16 05:00N 37°57' E 023°39'0 0.0
2018-Jun-16 04:30N 37°57' E 023°39'0 0.0
2018-Jun-16 04:00N 37°57' E 023°39'0 0.0
2018-Jun-16 03:30N 37°57' E 023°39'0 0.0
2018-Jun-16 03:00N 37°57' E 023°39'0 0.0
2018-Jun-16 02:30N 37°57' E 023°39'0 0.0
2018-Jun-16 02:00N 37°57' E 023°39'0 0.0
2018-Jun-16 01:30N 37°57' E 023°39'0 0.0
2018-Jun-16 01:00N 37°57' E 023°39'0 0.0
2018-Jun-16 00:30N 37°57' E 023°39'0 0.0
2018-Jun-16 00:00N 37°57' E 023°39'0 0.0
2018-Jun-15 23:30N 37°57' E 023°39'0 0.0
2018-Jun-15 23:00N 37°57' E 023°39'0 0.0
2018-Jun-15 22:30N 37°57' E 023°39'0 0.0
2018-Jun-15 22:00N 37°57' E 023°39'0 0.0
2018-Jun-15 21:30N 37°57' E 023°39'0 0.0
2018-Jun-15 21:00N 37°57' E 023°39'0 0.0
2018-Jun-15 20:30N 37°57' E 023°39'0 0.0
2018-Jun-15 20:00N 37°57' E 023°39'0 0.0
2018-Jun-15 19:30N 37°57' E 023°39'0 0.7
2018-Jun-15 19:00N 37°57' E 023°38'13 3.3
2018-Jun-15 15:00N 37°44' E 023°34'1326.7
2018-Jun-15 14:30N 37°57' E 023°39'0 0.0
2018-Jun-15 14:00N 37°57' E 023°39'0 0.0
2018-Jun-15 13:30N 37°57' E 023°39'1224.4
2018-Jun-15 13:00N 37°45' E 023°34'3 1.3
2018-Jun-15 10:32N 37°42' E 023°32'236.2
2018-Jun-15 10:30N 37°43' E 023°33'1428.6
2018-Jun-15 10:00N 37°57' E 023°39'0 0.0
2018-Jun-15 09:30N 37°57' E 023°39'0 0.0
2018-Jun-15 09:00N 37°57' E 023°39'0 0.0
2018-Jun-15 08:30N 37°57' E 023°39'0 0.0
2018-Jun-15 08:00N 37°57' E 023°39'0 0.0
2018-Jun-15 07:30N 37°57' E 023°39'0 0.0
2018-Jun-15 07:00N 37°57' E 023°39'0 0.0
2018-Jun-15 06:30N 37°57' E 023°39'0 0.0
2018-Jun-15 06:00N 37°57' E 023°39'0 0.0
2018-Jun-15 05:30N 37°57' E 023°39'0 0.0
2018-Jun-15 05:00N 37°57' E 023°39'0 0.0
2018-Jun-15 04:30N 37°57' E 023°39'0 0.0
2018-Jun-15 04:00N 37°57' E 023°39'0 0.0
2018-Jun-15 03:30N 37°57' E 023°39'0 0.0
2018-Jun-15 03:00N 37°57' E 023°39'0 0.0
2018-Jun-15 02:30N 37°57' E 023°39'0 0.0
2018-Jun-15 02:00N 37°57' E 023°39'0 0.0
2018-Jun-15 01:30N 37°57' E 023°39'0 0.0
2018-Jun-15 01:00N 37°57' E 023°39'0 0.0
2018-Jun-15 00:30N 37°57' E 023°39'0 0.0
2018-Jun-15 00:00N 37°57' E 023°39'0 0.0
2018-Jun-14 23:30N 37°57' E 023°39'0 0.0
2018-Jun-14 23:00N 37°57' E 023°39'0 0.0
2018-Jun-14 22:30N 37°57' E 023°39'0 0.0
2018-Jun-14 22:00N 37°57' E 023°39'  
Track history (hours):
 
Tides and Currents Weather Stations Pressure Air Temp Water Temp Dewpoint Dewpoint Depression Visibility Wind Speed Wind Dir Waves Ship Positions

Flying Cat 3

Last reported at 2018-Jun-24 22:00 UTC. Time now 2018-Jun-24 21:59 UTC.
Position N 37°57' E 023°39'.

Length 48 m; draft 1.5 m.

Type: High speed craft. MMSI: 239552000.

Date/timePositionNaut miles runAvg speedWind from/ knotsBaromVisibWave heightAir tempDewpointWater temp
2018-Jun-24 22:00N 37°57' E 023°39'0 0.0
2018-Jun-24 21:30N 37°57' E 023°39'0 0.0
2018-Jun-24 21:00N 37°57' E 023°39'0 0.0
2018-Jun-24 20:30N 37°57' E 023°39'0 0.0
2018-Jun-24 20:00N 37°57' E 023°39'0 0.0
2018-Jun-24 19:30N 37°57' E 023°39'0 0.0
2018-Jun-24 19:00N 37°57' E 023°39'917.3
2018-Jun-24 18:31N 37°48' E 023°35'4 1.1
2018-Jun-24 14:57N 37°45' E 023°34'1328.3
2018-Jun-24 14:30N 37°57' E 023°39'0 0.0
2018-Jun-24 14:00N 37°57' E 023°39'918.1
2018-Jun-24 13:31N 37°48' E 023°35'5 1.1
2018-Jun-24 09:29N 37°44' E 023°33'1428.7
2018-Jun-24 09:00N 37°57' E 023°39'0 0.0
2018-Jun-24 08:30N 37°57' E 023°39'0 0.0
2018-Jun-24 08:00N 37°57' E 023°39'0 0.0
2018-Jun-24 07:30N 37°57' E 023°39'0 0.0
2018-Jun-24 07:00N 37°57' E 023°39'0 0.0
2018-Jun-24 06:30N 37°57' E 023°39'0 0.0
2018-Jun-24 06:00N 37°57' E 023°39'0 0.0
2018-Jun-24 05:30N 37°57' E 023°39'0 0.0
2018-Jun-24 05:00N 37°57' E 023°39'0 0.0
2018-Jun-24 04:30N 37°57' E 023°39'0 0.0
2018-Jun-24 04:00N 37°57' E 023°39'0 0.0
2018-Jun-24 03:30N 37°57' E 023°39'0 0.0
2018-Jun-24 03:00N 37°57' E 023°39'0 0.0
2018-Jun-24 02:30N 37°57' E 023°39'0 0.0
2018-Jun-24 02:00N 37°57' E 023°39'0 0.0
2018-Jun-24 01:30N 37°57' E 023°39'0 0.0
2018-Jun-24 01:00N 37°57' E 023°39'0 0.0
2018-Jun-24 00:30N 37°57' E 023°39'0 0.0
2018-Jun-24 00:00N 37°57' E 023°39'0 0.0
2018-Jun-23 23:30N 37°57' E 023°39'0 0.0
2018-Jun-23 23:00N 37°57' E 023°39'0 0.0
2018-Jun-23 22:30N 37°57' E 023°39'0 0.0
2018-Jun-23 22:00N 37°57' E 023°39'0 0.0
2018-Jun-23 21:30N 37°57' E 023°39'0 0.0
2018-Jun-23 21:00N 37°57' E 023°39'0 0.0
2018-Jun-23 20:30N 37°57' E 023°39'0 0.0
2018-Jun-23 20:00N 37°57' E 023°39'0 0.0
2018-Jun-23 19:30N 37°57' E 023°39'0 0.0
2018-Jun-23 19:00N 37°57' E 023°39'0 0.0
2018-Jun-23 18:30N 37°57' E 023°39'0 0.0
2018-Jun-23 18:00N 37°57' E 023°39'0 0.0
2018-Jun-23 17:30N 37°57' E 023°39'0 0.0
2018-Jun-23 17:00N 37°57' E 023°39'0 0.0
2018-Jun-23 16:30N 37°57' E 023°39'0 0.0
2018-Jun-23 16:00N 37°57' E 023°39'0 0.0
2018-Jun-23 15:30N 37°57' E 023°39'0 0.0
2018-Jun-23 15:00N 37°57' E 023°39'1 2.2
2018-Jun-23 14:31N 37°56' E 023°37'14 3.9
2018-Jun-23 10:47N 37°42' E 023°35'1037.0
2018-Jun-23 10:31N 37°52' E 023°36'5 9.1
2018-Jun-23 10:00N 37°57' E 023°39'0 0.0
2018-Jun-23 09:30N 37°57' E 023°39'817.0
2018-Jun-23 09:01N 37°48' E 023°36'5 1.8
2018-Jun-23 05:59N 37°43' E 023°35'1428.5
2018-Jun-23 05:30N 37°57' E 023°39'0 0.0
2018-Jun-23 05:00N 37°57' E 023°39'0 0.0
2018-Jun-23 04:30N 37°57' E 023°39'0 0.0
2018-Jun-23 04:00N 37°57' E 023°39'0 0.0
2018-Jun-23 03:30N 37°57' E 023°39'0 0.0
2018-Jun-23 03:00N 37°57' E 023°39'0 0.0
2018-Jun-23 02:30N 37°57' E 023°39'0 0.0
2018-Jun-23 02:00N 37°57' E 023°39'0 0.0
2018-Jun-23 01:30N 37°57' E 023°39'0 0.0
2018-Jun-23 01:00N 37°57' E 023°39'0 0.0
2018-Jun-23 00:30N 37°57' E 023°39'0 0.0
2018-Jun-23 00:00N 37°57' E 023°39'0 0.0
2018-Jun-22 23:30N 37°57' E 023°39'0 0.0
2018-Jun-22 23:00N 37°57' E 023°39'0 0.0
2018-Jun-22 22:30N 37°57' E 023°39'0 0.0
2018-Jun-22 22:00N 37°57' E 023°39'0 0.0
2018-Jun-22 21:30N 37°57' E 023°39'0 0.0
2018-Jun-22 21:00N 37°57' E 023°39'0 0.0
2018-Jun-22 20:30N 37°57' E 023°39'0 0.0
2018-Jun-22 20:00N 37°57' E 023°39'0 0.0
2018-Jun-22 19:30N 37°57' E 023°39'0 0.0
2018-Jun-22 19:00N 37°57' E 023°39'918.6
2018-Jun-22 18:31N 37°48' E 023°35'16 5.0
2018-Jun-22 15:20N 37°32' E 023°33'1236.4
2018-Jun-22 15:00N 37°44' E 023°35'1326.2
2018-Jun-22 14:30N 37°57' E 023°39'0 0.0
2018-Jun-22 14:00N 37°57' E 023°39'0 0.0
2018-Jun-22 13:30N 37°57' E 023°39'1428.5
2018-Jun-22 13:01N 37°43' E 023°33'1519.3
2018-Jun-22 12:15N 37°29' E 023°31'3 4.1
2018-Jun-22 11:28N 37°26' E 023°33'1718.3
2018-Jun-22 10:34N 37°42' E 023°32'236.3
2018-Jun-22 10:30N 37°44' E 023°34'1325.6
2018-Jun-22 10:00N 37°57' E 023°39'0 0.0
2018-Jun-22 09:30N 37°57' E 023°39'0 0.0
2018-Jun-22 09:00N 37°57' E 023°39'0 0.0
2018-Jun-22 08:30N 37°57' E 023°39'0 0.0
2018-Jun-22 08:00N 37°57' E 023°39'0 0.0
2018-Jun-22 07:30N 37°57' E 023°39'0 0.0
2018-Jun-22 07:00N 37°57' E 023°39'0 0.0
2018-Jun-22 06:30N 37°57' E 023°39'0 0.0
2018-Jun-22 06:00N 37°57' E 023°39'0 0.0
2018-Jun-22 05:30N 37°57' E 023°39'0 0.0
2018-Jun-22 05:00N 37°57' E 023°39'0 0.0
2018-Jun-22 04:30N 37°57' E 023°39'0 0.0
2018-Jun-22 04:00N 37°57' E 023°39'0 0.0
2018-Jun-22 03:30N 37°57' E 023°39'0 0.0
2018-Jun-22 03:00N 37°57' E 023°39'0 0.0
2018-Jun-22 02:30N 37°57' E 023°39'0 0.0
2018-Jun-22 02:00N 37°57' E 023°39'0 0.0
2018-Jun-22 01:30N 37°57' E 023°39'0 0.0
2018-Jun-22 01:00N 37°57' E 023°39'0 0.0
2018-Jun-22 00:30N 37°57' E 023°39'0 0.0
2018-Jun-22 00:00N 37°57' E 023°39'0 0.0
2018-Jun-21 23:30N 37°57' E 023°39'0 0.0
2018-Jun-21 23:00N 37°57' E 023°39'0 0.0
2018-Jun-21 22:30N 37°57' E 023°39'0 0.0
2018-Jun-21 22:00N 37°57' E 023°39'0 0.0
2018-Jun-21 21:30N 37°57' E 023°39'0 0.0
2018-Jun-21 21:00N 37°57' E 023°39'0 0.0
2018-Jun-21 20:29N 37°57' E 023°39'0 0.0
2018-Jun-21 20:00N 37°57' E 023°39'0 0.0
2018-Jun-21 19:30N 37°57' E 023°39'0 0.0
2018-Jun-21 19:00N 37°57' E 023°39'3 5.8
2018-Jun-21 18:30N 37°54' E 023°36'3010.0
2018-Jun-21 15:28N 37°24' E 023°31'1718.5
2018-Jun-21 14:33N 37°41' E 023°32'237.3
2018-Jun-21 14:30N 37°43' E 023°33'1529.4
2018-Jun-21 14:01N 37°57' E 023°39'0 0.1
2018-Jun-21 13:30N 37°57' E 023°39'0 0.0
2018-Jun-21 13:00N 37°57' E 023°39'0 0.0
2018-Jun-21 12:30N 37°57' E 023°39'0 0.0
2018-Jun-21 12:00N 37°57' E 023°39'0 0.0
2018-Jun-21 11:30N 37°57' E 023°39'0 0.0
2018-Jun-21 11:00N 37°57' E 023°39'0 0.0
2018-Jun-21 10:30N 37°57' E 023°39'0 0.0
2018-Jun-21 10:00N 37°57' E 023°39'0 0.0
2018-Jun-21 09:30N 37°57' E 023°39'714.8
2018-Jun-21 09:00N 37°50' E 023°35'8 2.7
2018-Jun-21 06:03N 37°42' E 023°35'238.3
2018-Jun-21 06:00N 37°43' E 023°36'1326.8
2018-Jun-21 05:30N 37°57' E 023°39'0 0.0
2018-Jun-21 05:01N 37°57' E 023°39'0 0.0
2018-Jun-21 04:31N 37°57' E 023°39'0 0.0
2018-Jun-21 04:01N 37°57' E 023°39'0 0.0
2018-Jun-21 03:31N 37°57' E 023°39'0 0.0
2018-Jun-21 03:01N 37°57' E 023°39'0 0.0
2018-Jun-21 02:31N 37°57' E 023°39'0 0.0
2018-Jun-21 02:01N 37°57' E 023°39'0 0.0
2018-Jun-21 01:31N 37°57' E 023°39'0 0.0
2018-Jun-21 01:01N 37°57' E 023°39'0 0.0
2018-Jun-21 00:31N 37°57' E 023°39'0 0.0
2018-Jun-21 00:01N 37°57' E 023°39'0 0.0
2018-Jun-20 23:31N 37°57' E 023°39'0 0.0
2018-Jun-20 23:01N 37°57' E 023°39'0 0.0
2018-Jun-20 22:31N 37°57' E 023°39'0 0.0
2018-Jun-20 22:01N 37°57' E 023°39'0 0.0
2018-Jun-20 21:31N 37°57' E 023°39'0 0.0
2018-Jun-20 21:01N 37°57' E 023°39'0 0.0
2018-Jun-20 20:31N 37°57' E 023°39'0 0.0
2018-Jun-20 20:00N 37°57' E 023°39'0 0.0
2018-Jun-20 19:31N 37°57' E 023°39'0 0.0
2018-Jun-20 19:01N 37°57' E 023°39'3 5.2
2018-Jun-20 18:31N 37°55' E 023°36'12 3.0
2018-Jun-20 14:30N 37°43' E 023°33'1428.8
2018-Jun-20 14:01N 37°57' E 023°39'0 0.0
2018-Jun-20 13:31N 37°57' E 023°39'0 0.0
2018-Jun-20 13:00N 37°57' E 023°39'0 0.0
2018-Jun-20 12:31N 37°57' E 023°39'0 0.0
2018-Jun-20 12:01N 37°57' E 023°39'0 0.0
2018-Jun-20 11:31N 37°57' E 023°39'0 0.0
2018-Jun-20 11:01N 37°57' E 023°39'0 0.0
2018-Jun-20 10:31N 37°57' E 023°39'0 0.0
2018-Jun-20 10:01N 37°57' E 023°39'0 0.0
2018-Jun-20 09:31N 37°57' E 023°39'1020.1
2018-Jun-20 09:01N 37°47' E 023°35'4 1.2
2018-Jun-20 05:59N 37°43' E 023°35'1429.0
2018-Jun-20 05:31N 37°57' E 023°39'0 0.0
2018-Jun-20 05:00N 37°57' E 023°39'0 0.0
2018-Jun-20 04:30N 37°57' E 023°39'0 0.0
2018-Jun-20 04:00N 37°57' E 023°39'0 0.0
2018-Jun-20 03:30N 37°57' E 023°39'0 0.0
2018-Jun-20 03:00N 37°57' E 023°39'0 0.0
2018-Jun-20 02:30N 37°57' E 023°39'0 0.0
2018-Jun-20 02:00N 37°57' E 023°39'0 0.0
2018-Jun-20 01:30N 37°57' E 023°39'0 0.0
2018-Jun-20 01:00N 37°57' E 023°39'0 0.0
2018-Jun-20 00:30N 37°57' E 023°39'0 0.0
2018-Jun-20 00:00N 37°57' E 023°39'0 0.0
2018-Jun-19 23:30N 37°57' E 023°39'0 0.0
2018-Jun-19 23:00N 37°57' E 023°39'0 0.0
2018-Jun-19 22:30N 37°57' E 023°39'0 0.0
2018-Jun-19 22:00N 37°57' E 023°39'0 0.0
2018-Jun-19 21:30N 37°57' E 023°39'0 0.0
2018-Jun-19 21:00N 37°57' E 023°39'0 0.0
2018-Jun-19 20:30N 37°57' E 023°39'0 0.0
2018-Jun-19 20:00N 37°57' E 023°39'0 0.0
2018-Jun-19 19:30N 37°57' E 023°39'0 0.0
2018-Jun-19 19:00N 37°57' E 023°39'3 7.0
2018-Jun-19 18:30N 37°54' E 023°36'10 2.5
2018-Jun-19 14:28N 37°44' E 023°34'1328.6
2018-Jun-19 14:01N 37°57' E 023°39'0 0.0
2018-Jun-19 13:30N 37°57' E 023°39'0 0.0
2018-Jun-19 13:00N 37°57' E 023°39'0 0.0
2018-Jun-19 12:30N 37°57' E 023°39'0 0.0
2018-Jun-19 12:00N 37°57' E 023°39'0 0.0
2018-Jun-19 11:30N 37°57' E 023°39'0 0.0
2018-Jun-19 11:00N 37°57' E 023°39'0 0.0
2018-Jun-19 10:30N 37°57' E 023°39'0 0.0
2018-Jun-19 10:00N 37°57' E 023°39'0 0.0
2018-Jun-19 09:30N 37°57' E 023°39'918.2
2018-Jun-19 09:00N 37°48' E 023°36'4 1.3
2018-Jun-19 05:59N 37°44' E 023°35'1328.0
2018-Jun-19 05:31N 37°57' E 023°39'0 0.0
2018-Jun-19 05:01N 37°57' E 023°39'0 0.0
2018-Jun-19 04:31N 37°57' E 023°39'0 0.0
2018-Jun-19 04:01N 37°57' E 023°39'0 0.0
2018-Jun-19 03:31N 37°57' E 023°39'0 0.0
2018-Jun-19 03:01N 37°57' E 023°39'0 0.0
2018-Jun-19 02:31N 37°57' E 023°39'0 0.0
2018-Jun-19 02:01N 37°57' E 023°39'0 0.0
2018-Jun-19 01:31N 37°57' E 023°39'0 0.0
2018-Jun-19 01:01N 37°57' E 023°39'0 0.0
2018-Jun-19 00:31N 37°57' E 023°39'0 0.0
2018-Jun-19 00:01N 37°57' E 023°39'0 0.0
2018-Jun-18 23:31N 37°57' E 023°39'0 0.0
2018-Jun-18 23:01N 37°57' E 023°39'0 0.0
2018-Jun-18 22:30N 37°57' E 023°39'0 0.0
2018-Jun-18 22:00N 37°57' E 023°39'0 0.0
2018-Jun-18 21:31N 37°57' E 023°39'0 0.0
2018-Jun-18 21:01N 37°57' E 023°39'0 0.0
2018-Jun-18 20:30N 37°57' E 023°39'0 0.0
2018-Jun-18 20:00N 37°57' E 023°39'0 0.0
2018-Jun-18 19:31N 37°57' E 023°39'0 0.0
2018-Jun-18 19:01N 37°57' E 023°39'3 6.7
2018-Jun-18 18:30N 37°54' E 023°36'10 2.4
2018-Jun-18 14:27N 37°44' E 023°34'1328.5
2018-Jun-18 14:00N 37°57' E 023°39'0 0.1
2018-Jun-18 13:30N 37°57' E 023°39'0 0.0
2018-Jun-18 13:00N 37°57' E 023°39'0 0.0
2018-Jun-18 12:30N 37°57' E 023°39'0 0.0
2018-Jun-18 12:00N 37°57' E 023°39'0 0.0
2018-Jun-18 11:30N 37°57' E 023°39'0 0.0
2018-Jun-18 11:00N 37°57' E 023°39'0 0.0
2018-Jun-18 10:30N 37°57' E 023°39'0 0.0
2018-Jun-18 10:00N 37°57' E 023°39'0 0.0
2018-Jun-18 09:30N 37°57' E 023°39'1121.4
2018-Jun-18 09:00N 37°46' E 023°35'4 1.2
2018-Jun-18 06:00N 37°43' E 023°35'1429.0
2018-Jun-18 05:30N 37°57' E 023°39'0 0.0
2018-Jun-18 05:00N 37°57' E 023°39'0 0.0
2018-Jun-18 04:30N 37°57' E 023°39'0 0.0
2018-Jun-18 04:01N 37°57' E 023°39'0 0.0
2018-Jun-18 03:30N 37°57' E 023°39'0 0.0
2018-Jun-18 03:00N 37°57' E 023°39'0 0.0
2018-Jun-18 02:31N 37°57' E 023°39'0 0.0
2018-Jun-18 02:00N 37°57' E 023°39'0 0.0
2018-Jun-18 01:30N 37°57' E 023°39'0 0.0
2018-Jun-18 01:01N 37°57' E 023°39'0 0.0
2018-Jun-18 00:30N 37°57' E 023°39'0 0.0
2018-Jun-18 00:00N 37°57' E 023°39'0 0.0
2018-Jun-17 23:30N 37°57' E 023°39'0 0.0
2018-Jun-17 23:00N 37°57' E 023°39'0 0.0
2018-Jun-17 22:31N 37°57' E 023°39'0 0.0
2018-Jun-17 22:00N 37°57' E 023°39'0 0.0
2018-Jun-17 21:30N 37°57' E 023°39'0 0.0
2018-Jun-17 21:00N 37°57' E 023°39'0 0.0
2018-Jun-17 20:30N 37°57' E 023°39'0 0.0
2018-Jun-17 20:00N 37°57' E 023°39'0 0.0
2018-Jun-17 19:31N 37°57' E 023°39'0 0.0
2018-Jun-17 19:01N 37°57' E 023°39'0 0.0
2018-Jun-17 18:31N 37°57' E 023°39'1122.4
2018-Jun-17 18:01N 37°46' E 023°35'1 0.2
2018-Jun-17 14:55N 37°46' E 023°36'1127.2
2018-Jun-17 14:30N 37°57' E 023°39'0 0.0
2018-Jun-17 14:01N 37°57' E 023°39'1018.9
2018-Jun-17 13:30N 37°47' E 023°35'4 1.0
2018-Jun-17 09:31N 37°44' E 023°33'036.6
2018-Jun-17 09:30N 37°44' E 023°33'1427.0
2018-Jun-17 09:01N 37°57' E 023°39'0 0.0
2018-Jun-17 08:30N 37°57' E 023°39'0 0.0
2018-Jun-17 08:00N 37°57' E 023°39'0 0.0
2018-Jun-17 07:30N 37°57' E 023°39'0 0.0
2018-Jun-17 07:00N 37°57' E 023°39'0 0.0
2018-Jun-17 06:30N 37°57' E 023°39'0 0.0
2018-Jun-17 06:00N 37°57' E 023°39'0 0.0
2018-Jun-17 05:30N 37°57' E 023°39'0 0.0
2018-Jun-17 05:00N 37°57' E 023°39'0 0.0
2018-Jun-17 04:30N 37°57' E 023°39'0 0.0
2018-Jun-17 04:00N 37°57' E 023°39'0 0.0
2018-Jun-17 03:30N 37°57' E 023°39'0 0.0
2018-Jun-17 03:00N 37°57' E 023°39'0 0.0
2018-Jun-17 02:30N 37°57' E 023°39'0 0.0
2018-Jun-17 02:00N 37°57' E 023°39'0 0.0
2018-Jun-17 01:30N 37°57' E 023°39'0 0.0
2018-Jun-17 01:00N 37°57' E 023°39'0 0.0
2018-Jun-17 00:30N 37°57' E 023°39'0 0.0
2018-Jun-17 00:00N 37°57' E 023°39'0 0.0
2018-Jun-16 23:30N 37°57' E 023°39'0 0.0
2018-Jun-16 23:00N 37°57' E 023°39'0 0.0
2018-Jun-16 22:30N 37°57' E 023°39'0 0.0
2018-Jun-16 22:00N 37°57' E 023°39'0 0.0
2018-Jun-16 21:30N 37°57' E 023°39'0 0.0
2018-Jun-16 21:00N 37°57' E 023°39'0 0.0
2018-Jun-16 20:30N 37°57' E 023°39'0 0.0
2018-Jun-16 20:00N 37°57' E 023°39'0 0.0
2018-Jun-16 19:30N 37°57' E 023°39'0 0.0
2018-Jun-16 19:00N 37°57' E 023°39'0 0.0
2018-Jun-16 18:30N 37°57' E 023°39'0 0.0
2018-Jun-16 18:00N 37°57' E 023°39'0 0.0
2018-Jun-16 17:30N 37°57' E 023°39'0 0.0
2018-Jun-16 17:00N 37°57' E 023°39'0 0.0
2018-Jun-16 16:30N 37°57' E 023°39'0 0.0
2018-Jun-16 16:00N 37°57' E 023°39'0 0.0
2018-Jun-16 15:30N 37°57' E 023°39'0 0.0
2018-Jun-16 15:00N 37°57' E 023°39'1 1.8
2018-Jun-16 14:31N 37°56' E 023°37'2035.1
2018-Jun-16 13:57N 37°38' E 023°30'7 2.2
2018-Jun-16 10:45N 37°43' E 023°35'936.5
2018-Jun-16 10:31N 37°52' E 023°36'5 9.9
2018-Jun-16 10:00N 37°57' E 023°39'0 0.0
2018-Jun-16 09:30N 37°57' E 023°39'1122.7
2018-Jun-16 09:01N 37°46' E 023°35'2 0.6
2018-Jun-16 05:59N 37°44' E 023°35'1328.1
2018-Jun-16 05:30N 37°57' E 023°39'0 0.0
2018-Jun-16 05:00N 37°57' E 023°39'0 0.0
2018-Jun-16 04:30N 37°57' E 023°39'0 0.0
2018-Jun-16 04:00N 37°57' E 023°39'0 0.0
2018-Jun-16 03:30N 37°57' E 023°39'0 0.0
2018-Jun-16 03:00N 37°57' E 023°39'0 0.0
2018-Jun-16 02:30N 37°57' E 023°39'0 0.0
2018-Jun-16 02:00N 37°57' E 023°39'0 0.0
2018-Jun-16 01:30N 37°57' E 023°39'0 0.0
2018-Jun-16 01:00N 37°57' E 023°39'0 0.0
2018-Jun-16 00:30N 37°57' E 023°39'0 0.0
2018-Jun-16 00:00N 37°57' E 023°39'0 0.0
2018-Jun-15 23:30N 37°57' E 023°39'0 0.0
2018-Jun-15 23:00N 37°57' E 023°39'0 0.0
2018-Jun-15 22:30N 37°57' E 023°39'0 0.0
2018-Jun-15 22:00N 37°57' E 023°39'0 0.0
2018-Jun-15 21:30N 37°57' E 023°39'0 0.0
2018-Jun-15 21:00N 37°57' E 023°39'0 0.0
2018-Jun-15 20:30N 37°57' E 023°39'0 0.0
2018-Jun-15 20:00N 37°57' E 023°39'0 0.0
2018-Jun-15 19:30N 37°57' E 023°39'0 0.7
2018-Jun-15 19:00N 37°57' E 023°38'13 3.3
2018-Jun-15 15:00N 37°44' E 023°34'1326.7
2018-Jun-15 14:30N 37°57' E 023°39'0 0.0
2018-Jun-15 14:00N 37°57' E 023°39'0 0.0
2018-Jun-15 13:30N 37°57' E 023°39'1224.4
2018-Jun-15 13:00N 37°45' E 023°34'3 1.3
2018-Jun-15 10:32N 37°42' E 023°32'236.2
2018-Jun-15 10:30N 37°43' E 023°33'1428.6
2018-Jun-15 10:00N 37°57' E 023°39'0 0.0
2018-Jun-15 09:30N 37°57' E 023°39'0 0.0
2018-Jun-15 09:00N 37°57' E 023°39'0 0.0
2018-Jun-15 08:30N 37°57' E 023°39'0 0.0
2018-Jun-15 08:00N 37°57' E 023°39'0 0.0
2018-Jun-15 07:30N 37°57' E 023°39'0 0.0
2018-Jun-15 07:00N 37°57' E 023°39'0 0.0
2018-Jun-15 06:30N 37°57' E 023°39'0 0.0
2018-Jun-15 06:00N 37°57' E 023°39'0 0.0
2018-Jun-15 05:30N 37°57' E 023°39'0 0.0
2018-Jun-15 05:00N 37°57' E 023°39'0 0.0
2018-Jun-15 04:30N 37°57' E 023°39'0 0.0
2018-Jun-15 04:00N 37°57' E 023°39'0 0.0
2018-Jun-15 03:30N 37°57' E 023°39'0 0.0
2018-Jun-15 03:00N 37°57' E 023°39'0 0.0
2018-Jun-15 02:30N 37°57' E 023°39'0 0.0
2018-Jun-15 02:00N 37°57' E 023°39'0 0.0
2018-Jun-15 01:30N 37°57' E 023°39'0 0.0
2018-Jun-15 01:00N 37°57' E 023°39'0 0.0
2018-Jun-15 00:30N 37°57' E 023°39'0 0.0
2018-Jun-15 00:00N 37°57' E 023°39'0 0.0
2018-Jun-14 23:30N 37°57' E 023°39'0 0.0
2018-Jun-14 23:00N 37°57' E 023°39'0 0.0
2018-Jun-14 22:30N 37°57' E 023°39'0 0.0
2018-Jun-14 22:00N 37°57' E 023°39'  

Dump ship's entire track history